sensor_id;sensor_type;location;lat;lon;timestamp;temperature;humidity
16635;DHT22;8431;52.458;9.998;2022-12-07T00:01:09;3.30;99.90
16635;DHT22;8431;52.458;9.998;2022-12-07T00:03:38;3.30;99.90
16635;DHT22;8431;52.458;9.998;2022-12-07T00:06:07;3.30;99.90
16635;DHT22;8431;52.458;9.998;2022-12-07T00:08:35;3.30;99.90
16635;DHT22;8431;52.458;9.998;2022-12-07T00:11:04;3.40;99.90
16635;DHT22;8431;52.458;9.998;2022-12-07T00:13:32;3.40;99.90
16635;DHT22;8431;52.458;9.998;2022-12-07T00:16:01;3.50;99.90
16635;DHT22;8431;52.458;9.998;2022-12-07T00:18:31;3.60;99.90
16635;DHT22;8431;52.458;9.998;2022-12-07T00:21:00;3.70;99.90
16635;DHT22;8431;52.458;9.998;2022-12-07T00:23:28;3.70;99.90
16635;DHT22;8431;52.458;9.998;2022-12-07T00:25:55;3.70;99.90
16635;DHT22;8431;52.458;9.998;2022-12-07T00:28:26;3.80;99.90
16635;DHT22;8431;52.458;9.998;2022-12-07T00:31:00;3.80;99.90
16635;DHT22;8431;52.458;9.998;2022-12-07T00:33:27;3.80;99.90
16635;DHT22;8431;52.458;9.998;2022-12-07T00:35:55;3.80;99.90
16635;DHT22;8431;52.458;9.998;2022-12-07T00:38:22;3.80;99.90
16635;DHT22;8431;52.458;9.998;2022-12-07T00:40:55;3.90;99.90
16635;DHT22;8431;52.458;9.998;2022-12-07T00:43:23;3.90;99.90
16635;DHT22;8431;52.458;9.998;2022-12-07T00:45:58;4.00;99.90
16635;DHT22;8431;52.458;9.998;2022-12-07T00:48:25;3.90;99.90
16635;DHT22;8431;52.458;9.998;2022-12-07T00:50:52;4.00;99.90
16635;DHT22;8431;52.458;9.998;2022-12-07T00:53:19;3.90;99.90
16635;DHT22;8431;52.458;9.998;2022-12-07T00:55:46;4.00;99.90
16635;DHT22;8431;52.458;9.998;2022-12-07T00:58:14;4.00;99.90
16635;DHT22;8431;52.458;9.998;2022-12-07T01:00:42;4.00;99.90
16635;DHT22;8431;52.458;9.998;2022-12-07T01:03:12;4.00;99.90
16635;DHT22;8431;52.458;9.998;2022-12-07T01:05:40;4.00;99.90
16635;DHT22;8431;52.458;9.998;2022-12-07T01:08:15;4.00;99.90
16635;DHT22;8431;52.458;9.998;2022-12-07T01:10:42;4.10;99.90
16635;DHT22;8431;52.458;9.998;2022-12-07T01:13:09;4.10;99.90
16635;DHT22;8431;52.458;9.998;2022-12-07T01:15:39;4.00;99.90
16635;DHT22;8431;52.458;9.998;2022-12-07T01:18:06;4.10;99.90
16635;DHT22;8431;52.458;9.998;2022-12-07T01:20:35;4.10;99.90
16635;DHT22;8431;52.458;9.998;2022-12-07T01:23:02;4.10;99.90
16635;DHT22;8431;52.458;9.998;2022-12-07T01:25:29;4.10;99.90
16635;DHT22;8431;52.458;9.998;2022-12-07T01:27:56;4.20;99.90
16635;DHT22;8431;52.458;9.998;2022-12-07T01:30:24;4.20;99.90
16635;DHT22;8431;52.458;9.998;2022-12-07T01:32:51;4.20;99.90
16635;DHT22;8431;52.458;9.998;2022-12-07T01:35:18;4.20;99.90
16635;DHT22;8431;52.458;9.998;2022-12-07T01:37:46;4.20;99.90
16635;DHT22;8431;52.458;9.998;2022-12-07T01:40:13;4.20;99.90
16635;DHT22;8431;52.458;9.998;2022-12-07T01:42:40;4.20;99.90
16635;DHT22;8431;52.458;9.998;2022-12-07T01:48:13;4.30;99.90
16635;DHT22;8431;52.458;9.998;2022-12-07T01:50:43;4.30;99.90
16635;DHT22;8431;52.458;9.998;2022-12-07T01:53:13;4.30;99.90
16635;DHT22;8431;52.458;9.998;2022-12-07T01:55:44;4.30;99.90
16635;DHT22;8431;52.458;9.998;2022-12-07T01:58:12;4.30;99.90
16635;DHT22;8431;52.458;9.998;2022-12-07T02:00:41;4.30;99.90
16635;DHT22;8431;52.458;9.998;2022-12-07T02:03:11;4.30;99.90
16635;DHT22;8431;52.458;9.998;2022-12-07T02:05:41;4.20;99.90
16635;DHT22;8431;52.458;9.998;2022-12-07T02:08:12;4.30;99.90
16635;DHT22;8431;52.458;9.998;2022-12-07T02:10:40;4.20;99.90
16635;DHT22;8431;52.458;9.998;2022-12-07T02:13:10;4.20;99.90
16635;DHT22;8431;52.458;9.998;2022-12-07T02:18:33;4.10;99.90
16635;DHT22;8431;52.458;9.998;2022-12-07T02:21:07;4.10;99.90
16635;DHT22;8431;52.458;9.998;2022-12-07T02:24:23;4.10;99.90
16635;DHT22;8431;52.458;9.998;2022-12-07T02:29:58;4.10;99.90
16635;DHT22;8431;52.458;9.998;2022-12-07T02:32:35;4.10;99.90
16635;DHT22;8431;52.458;9.998;2022-12-07T02:35:11;4.10;99.90
16635;DHT22;8431;52.458;9.998;2022-12-07T02:37:46;4.10;99.90
16635;DHT22;8431;52.458;9.998;2022-12-07T02:40:19;4.10;99.90
16635;DHT22;8431;52.458;9.998;2022-12-07T02:42:52;4.10;99.90
16635;DHT22;8431;52.458;9.998;2022-12-07T02:45:23;4.10;99.90
16635;DHT22;8431;52.458;9.998;2022-12-07T02:47:53;4.10;99.90
16635;DHT22;8431;52.458;9.998;2022-12-07T02:50:24;4.00;99.90
16635;DHT22;8431;52.458;9.998;2022-12-07T02:52:51;4.00;99.90
16635;DHT22;8431;52.458;9.998;2022-12-07T02:55:21;4.00;99.90
16635;DHT22;8431;52.458;9.998;2022-12-07T03:00:54;3.80;99.90
16635;DHT22;8431;52.458;9.998;2022-12-07T03:03:26;3.70;99.90
16635;DHT22;8431;52.458;9.998;2022-12-07T03:06:03;3.70;99.90
16635;DHT22;8431;52.458;9.998;2022-12-07T03:08:43;3.70;99.90
16635;DHT22;8431;52.458;9.998;2022-12-07T03:11:13;3.70;99.90
16635;DHT22;8431;52.458;9.998;2022-12-07T03:13:50;3.60;99.90
16635;DHT22;8431;52.458;9.998;2022-12-07T03:16:25;3.60;99.90
16635;DHT22;8431;52.458;9.998;2022-12-07T03:18:59;3.70;99.90
16635;DHT22;8431;52.458;9.998;2022-12-07T03:21:30;3.60;99.90
16635;DHT22;8431;52.458;9.998;2022-12-07T03:24:00;3.50;99.90
16635;DHT22;8431;52.458;9.998;2022-12-07T03:26:33;3.50;99.90
16635;DHT22;8431;52.458;9.998;2022-12-07T03:29:07;3.50;99.90
16635;DHT22;8431;52.458;9.998;2022-12-07T03:31:40;3.40;99.90
16635;DHT22;8431;52.458;9.998;2022-12-07T03:34:11;3.40;99.90
16635;DHT22;8431;52.458;9.998;2022-12-07T03:36:46;3.40;99.90
16635;DHT22;8431;52.458;9.998;2022-12-07T03:39:19;3.40;99.90
16635;DHT22;8431;52.458;9.998;2022-12-07T03:41:49;3.50;99.90
16635;DHT22;8431;52.458;9.998;2022-12-07T03:44:17;3.60;99.90
16635;DHT22;8431;52.458;9.998;2022-12-07T03:46:50;3.70;99.90
16635;DHT22;8431;52.458;9.998;2022-12-07T03:49:24;3.70;99.90
16635;DHT22;8431;52.458;9.998;2022-12-07T03:51:57;3.70;99.90
16635;DHT22;8431;52.458;9.998;2022-12-07T03:54:30;3.70;99.90
16635;DHT22;8431;52.458;9.998;2022-12-07T03:56:58;3.80;99.90
16635;DHT22;8431;52.458;9.998;2022-12-07T03:59:27;3.80;99.90
16635;DHT22;8431;52.458;9.998;2022-12-07T04:02:02;3.80;99.90
16635;DHT22;8431;52.458;9.998;2022-12-07T04:04:29;3.80;99.90
16635;DHT22;8431;52.458;9.998;2022-12-07T04:06:57;3.80;99.90
16635;DHT22;8431;52.458;9.998;2022-12-07T04:09:24;3.80;99.90
16635;DHT22;8431;52.458;9.998;2022-12-07T04:11:51;3.70;99.90
16635;DHT22;8431;52.458;9.998;2022-12-07T04:14:18;3.70;99.90
16635;DHT22;8431;52.458;9.998;2022-12-07T04:16:45;3.70;99.90
16635;DHT22;8431;52.458;9.998;2022-12-07T04:19:13;3.70;99.90
16635;DHT22;8431;52.458;9.998;2022-12-07T04:21:40;3.60;99.90
16635;DHT22;8431;52.458;9.998;2022-12-07T04:24:08;3.60;99.90
16635;DHT22;8431;52.458;9.998;2022-12-07T04:26:35;3.50;99.90
16635;DHT22;8431;52.458;9.998;2022-12-07T04:29:02;3.50;99.90
16635;DHT22;8431;52.458;9.998;2022-12-07T04:31:29;3.40;99.90
16635;DHT22;8431;52.458;9.998;2022-12-07T04:33:56;3.50;99.90
16635;DHT22;8431;52.458;9.998;2022-12-07T04:36:24;3.50;99.90
16635;DHT22;8431;52.458;9.998;2022-12-07T04:38:53;3.60;99.90
16635;DHT22;8431;52.458;9.998;2022-12-07T04:41:20;3.60;99.90
16635;DHT22;8431;52.458;9.998;2022-12-07T04:43:53;3.50;99.90
16635;DHT22;8431;52.458;9.998;2022-12-07T04:46:21;3.60;99.90
16635;DHT22;8431;52.458;9.998;2022-12-07T04:48:48;3.50;99.90
16635;DHT22;8431;52.458;9.998;2022-12-07T04:51:19;3.50;99.90
16635;DHT22;8431;52.458;9.998;2022-12-07T04:53:48;3.50;99.90
16635;DHT22;8431;52.458;9.998;2022-12-07T04:56:16;3.50;99.90
16635;DHT22;8431;52.458;9.998;2022-12-07T04:58:44;3.50;99.90
16635;DHT22;8431;52.458;9.998;2022-12-07T05:01:11;3.60;99.90
16635;DHT22;8431;52.458;9.998;2022-12-07T05:03:38;3.60;99.90
16635;DHT22;8431;52.458;9.998;2022-12-07T05:06:06;3.60;99.90
16635;DHT22;8431;52.458;9.998;2022-12-07T05:08:34;3.60;99.90
16635;DHT22;8431;52.458;9.998;2022-12-07T05:11:04;3.60;99.90
16635;DHT22;8431;52.458;9.998;2022-12-07T05:13:31;3.60;99.90
16635;DHT22;8431;52.458;9.998;2022-12-07T05:15:58;3.60;99.90
16635;DHT22;8431;52.458;9.998;2022-12-07T05:18:25;3.60;99.90
16635;DHT22;8431;52.458;9.998;2022-12-07T05:20:53;3.60;99.90
16635;DHT22;8431;52.458;9.998;2022-12-07T05:23:20;3.60;99.90
16635;DHT22;8431;52.458;9.998;2022-12-07T05:25:47;3.60;99.90
16635;DHT22;8431;52.458;9.998;2022-12-07T05:28:15;3.60;99.90
16635;DHT22;8431;52.458;9.998;2022-12-07T05:30:42;3.50;99.90
16635;DHT22;8431;52.458;9.998;2022-12-07T05:33:09;3.40;99.90
16635;DHT22;8431;52.458;9.998;2022-12-07T05:35:36;3.40;99.90
16635;DHT22;8431;52.458;9.998;2022-12-07T05:38:04;3.40;99.90
16635;DHT22;8431;52.458;9.998;2022-12-07T05:40:31;3.40;99.90
16635;DHT22;8431;52.458;9.998;2022-12-07T05:42:58;3.30;99.90
16635;DHT22;8431;52.458;9.998;2022-12-07T05:45:27;3.30;99.90
16635;DHT22;8431;52.458;9.998;2022-12-07T05:47:54;3.30;99.90
16635;DHT22;8431;52.458;9.998;2022-12-07T05:50:21;3.30;99.90
16635;DHT22;8431;52.458;9.998;2022-12-07T05:52:48;3.40;99.90
16635;DHT22;8431;52.458;9.998;2022-12-07T05:55:15;3.40;99.90
16635;DHT22;8431;52.458;9.998;2022-12-07T05:57:42;3.40;99.90
16635;DHT22;8431;52.458;9.998;2022-12-07T06:00:31;3.40;99.90
16635;DHT22;8431;52.458;9.998;2022-12-07T06:02:57;3.40;99.90
16635;DHT22;8431;52.458;9.998;2022-12-07T06:05:24;3.40;99.90
16635;DHT22;8431;52.458;9.998;2022-12-07T06:07:51;3.40;99.90
16635;DHT22;8431;52.458;9.998;2022-12-07T06:10:18;3.40;99.90
16635;DHT22;8431;52.458;9.998;2022-12-07T06:12:45;3.30;99.90
16635;DHT22;8431;52.458;9.998;2022-12-07T06:15:12;3.30;99.90
16635;DHT22;8431;52.458;9.998;2022-12-07T06:17:40;3.30;99.90
16635;DHT22;8431;52.458;9.998;2022-12-07T06:20:08;3.30;99.90
16635;DHT22;8431;52.458;9.998;2022-12-07T06:22:35;3.30;99.90
16635;DHT22;8431;52.458;9.998;2022-12-07T06:25:02;3.20;99.90
16635;DHT22;8431;52.458;9.998;2022-12-07T06:27:30;3.20;99.90
16635;DHT22;8431;52.458;9.998;2022-12-07T06:29:58;3.10;99.90
16635;DHT22;8431;52.458;9.998;2022-12-07T06:32:25;3.10;99.90
16635;DHT22;8431;52.458;9.998;2022-12-07T06:34:54;3.10;99.90
16635;DHT22;8431;52.458;9.998;2022-12-07T06:37:21;3.10;99.90
16635;DHT22;8431;52.458;9.998;2022-12-07T06:39:48;3.10;99.90
16635;DHT22;8431;52.458;9.998;2022-12-07T06:42:15;3.10;99.90
16635;DHT22;8431;52.458;9.998;2022-12-07T06:44:42;3.10;99.90
16635;DHT22;8431;52.458;9.998;2022-12-07T06:47:09;3.10;99.90
16635;DHT22;8431;52.458;9.998;2022-12-07T06:49:37;3.10;99.90
16635;DHT22;8431;52.458;9.998;2022-12-07T06:52:05;3.10;99.90
16635;DHT22;8431;52.458;9.998;2022-12-07T06:54:32;3.10;99.90
16635;DHT22;8431;52.458;9.998;2022-12-07T06:56:59;3.10;99.90
16635;DHT22;8431;52.458;9.998;2022-12-07T06:59:26;3.00;99.90
16635;DHT22;8431;52.458;9.998;2022-12-07T07:01:53;3.10;99.90
16635;DHT22;8431;52.458;9.998;2022-12-07T07:04:20;3.10;99.90
16635;DHT22;8431;52.458;9.998;2022-12-07T07:06:47;3.10;99.90
16635;DHT22;8431;52.458;9.998;2022-12-07T07:09:16;3.10;99.90
16635;DHT22;8431;52.458;9.998;2022-12-07T07:11:43;3.10;99.90
16635;DHT22;8431;52.458;9.998;2022-12-07T07:14:10;3.10;99.90
16635;DHT22;8431;52.458;9.998;2022-12-07T07:16:36;3.10;99.90
16635;DHT22;8431;52.458;9.998;2022-12-07T07:19:03;3.00;99.90
16635;DHT22;8431;52.458;9.998;2022-12-07T07:21:30;3.10;99.90
16635;DHT22;8431;52.458;9.998;2022-12-07T07:23:57;3.00;99.90
16635;DHT22;8431;52.458;9.998;2022-12-07T07:26:26;3.00;99.90
16635;DHT22;8431;52.458;9.998;2022-12-07T07:28:53;3.00;99.90
16635;DHT22;8431;52.458;9.998;2022-12-07T07:31:20;2.90;99.90
16635;DHT22;8431;52.458;9.998;2022-12-07T07:33:47;3.00;99.90
16635;DHT22;8431;52.458;9.998;2022-12-07T07:36:14;3.00;99.90
16635;DHT22;8431;52.458;9.998;2022-12-07T07:38:41;3.00;99.90
16635;DHT22;8431;52.458;9.998;2022-12-07T07:41:08;3.00;99.90
16635;DHT22;8431;52.458;9.998;2022-12-07T07:43:37;3.00;99.90
16635;DHT22;8431;52.458;9.998;2022-12-07T07:46:04;3.00;99.90
16635;DHT22;8431;52.458;9.998;2022-12-07T07:48:31;3.00;99.90
16635;DHT22;8431;52.458;9.998;2022-12-07T07:50:58;3.00;99.90
16635;DHT22;8431;52.458;9.998;2022-12-07T07:53:25;2.90;99.90
16635;DHT22;8431;52.458;9.998;2022-12-07T07:55:52;3.00;99.90
16635;DHT22;8431;52.458;9.998;2022-12-07T07:58:20;3.00;99.90
16635;DHT22;8431;52.458;9.998;2022-12-07T08:00:48;3.00;99.90
16635;DHT22;8431;52.458;9.998;2022-12-07T08:03:16;3.00;99.90
16635;DHT22;8431;52.458;9.998;2022-12-07T08:05:43;3.10;99.90
16635;DHT22;8431;52.458;9.998;2022-12-07T08:08:10;3.10;99.90
16635;DHT22;8431;52.458;9.998;2022-12-07T08:10:37;3.10;99.90
16635;DHT22;8431;52.458;9.998;2022-12-07T08:13:04;3.10;99.90
16635;DHT22;8431;52.458;9.998;2022-12-07T08:15:39;3.20;99.90
16635;DHT22;8431;52.458;9.998;2022-12-07T08:18:08;3.20;99.90
16635;DHT22;8431;52.458;9.998;2022-12-07T08:20:36;3.20;99.90
16635;DHT22;8431;52.458;9.998;2022-12-07T08:23:04;3.20;99.90
16635;DHT22;8431;52.458;9.998;2022-12-07T08:25:32;3.10;99.90
16635;DHT22;8431;52.458;9.998;2022-12-07T08:27:59;3.10;99.90
16635;DHT22;8431;52.458;9.998;2022-12-07T08:30:28;3.10;99.90
16635;DHT22;8431;52.458;9.998;2022-12-07T08:32:58;3.10;99.90
16635;DHT22;8431;52.458;9.998;2022-12-07T08:35:29;3.10;99.90
16635;DHT22;8431;52.458;9.998;2022-12-07T08:37:59;3.10;99.90
16635;DHT22;8431;52.458;9.998;2022-12-07T08:40:27;3.10;99.90
16635;DHT22;8431;52.458;9.998;2022-12-07T08:42:54;3.10;99.90
16635;DHT22;8431;52.458;9.998;2022-12-07T08:45:22;3.20;99.90
16635;DHT22;8431;52.458;9.998;2022-12-07T08:47:52;3.20;99.90
16635;DHT22;8431;52.458;9.998;2022-12-07T08:50:21;3.20;99.90
16635;DHT22;8431;52.458;9.998;2022-12-07T08:52:51;3.20;99.90
16635;DHT22;8431;52.458;9.998;2022-12-07T08:55:20;3.30;99.90
16635;DHT22;8431;52.458;9.998;2022-12-07T08:57:48;3.30;99.90
16635;DHT22;8431;52.458;9.998;2022-12-07T09:00:16;3.30;99.90
16635;DHT22;8431;52.458;9.998;2022-12-07T09:02:44;3.40;99.90
16635;DHT22;8431;52.458;9.998;2022-12-07T09:05:12;3.40;99.90
16635;DHT22;8431;52.458;9.998;2022-12-07T09:07:41;3.40;99.90
16635;DHT22;8431;52.458;9.998;2022-12-07T09:10:10;3.50;99.90
16635;DHT22;8431;52.458;9.998;2022-12-07T09:12:37;3.50;99.90
16635;DHT22;8431;52.458;9.998;2022-12-07T09:15:05;3.50;99.90
16635;DHT22;8431;52.458;9.998;2022-12-07T09:17:33;3.50;99.90
16635;DHT22;8431;52.458;9.998;2022-12-07T09:20:01;3.60;99.90
16635;DHT22;8431;52.458;9.998;2022-12-07T09:22:29;3.60;99.90
16635;DHT22;8431;52.458;9.998;2022-12-07T09:24:56;3.70;99.90
16635;DHT22;8431;52.458;9.998;2022-12-07T09:27:25;3.70;99.90
16635;DHT22;8431;52.458;9.998;2022-12-07T09:29:52;3.70;99.90
16635;DHT22;8431;52.458;9.998;2022-12-07T09:32:20;3.70;99.90
16635;DHT22;8431;52.458;9.998;2022-12-07T09:34:47;3.70;99.90
16635;DHT22;8431;52.458;9.998;2022-12-07T09:37:14;3.70;99.90
16635;DHT22;8431;52.458;9.998;2022-12-07T09:39:41;3.70;99.90
16635;DHT22;8431;52.458;9.998;2022-12-07T09:42:09;3.70;99.90
16635;DHT22;8431;52.458;9.998;2022-12-07T09:44:45;3.60;99.90
16635;DHT22;8431;52.458;9.998;2022-12-07T09:47:12;3.60;99.90
16635;DHT22;8431;52.458;9.998;2022-12-07T09:49:39;3.60;99.90
16635;DHT22;8431;52.458;9.998;2022-12-07T09:52:19;3.70;99.90
16635;DHT22;8431;52.458;9.998;2022-12-07T09:54:49;3.70;99.90
16635;DHT22;8431;52.458;9.998;2022-12-07T09:57:17;3.70;99.90
16635;DHT22;8431;52.458;9.998;2022-12-07T09:59:47;3.70;99.90
16635;DHT22;8431;52.458;9.998;2022-12-07T10:02:24;3.80;99.90
16635;DHT22;8431;52.458;9.998;2022-12-07T10:04:52;3.90;99.90
16635;DHT22;8431;52.458;9.998;2022-12-07T10:07:19;4.00;99.90
16635;DHT22;8431;52.458;9.998;2022-12-07T10:09:55;4.10;99.90
16635;DHT22;8431;52.458;9.998;2022-12-07T10:12:23;4.00;99.90
16635;DHT22;8431;52.458;9.998;2022-12-07T10:15:02;4.00;99.90
16635;DHT22;8431;52.458;9.998;2022-12-07T10:17:37;4.00;99.90
16635;DHT22;8431;52.458;9.998;2022-12-07T10:20:23;4.10;99.90
16635;DHT22;8431;52.458;9.998;2022-12-07T10:22:56;4.10;99.90
16635;DHT22;8431;52.458;9.998;2022-12-07T10:25:27;4.10;99.90
16635;DHT22;8431;52.458;9.998;2022-12-07T10:27:59;4.10;99.90
16635;DHT22;8431;52.458;9.998;2022-12-07T10:30:50;4.10;99.90
16635;DHT22;8431;52.458;9.998;2022-12-07T10:33:33;4.00;99.90
16635;DHT22;8431;52.458;9.998;2022-12-07T10:36:22;4.00;99.90
16635;DHT22;8431;52.458;9.998;2022-12-07T10:38:52;4.10;99.90
16635;DHT22;8431;52.458;9.998;2022-12-07T10:41:31;4.00;99.90
16635;DHT22;8431;52.458;9.998;2022-12-07T10:43:58;4.20;99.90
16635;DHT22;8431;52.458;9.998;2022-12-07T10:46:54;4.20;99.90
16635;DHT22;8431;52.458;9.998;2022-12-07T10:59:50;4.30;99.90
16635;DHT22;8431;52.458;9.998;2022-12-07T11:03:02;4.40;99.90
16635;DHT22;8431;52.458;9.998;2022-12-07T11:06:14;4.50;99.90
16635;DHT22;8431;52.458;9.998;2022-12-07T11:09:29;4.50;99.90
16635;DHT22;8431;52.458;9.998;2022-12-07T11:12:29;4.50;99.90
16635;DHT22;8431;52.458;9.998;2022-12-07T11:15:13;4.50;99.90
16635;DHT22;8431;52.458;9.998;2022-12-07T11:17:50;4.50;99.90
16635;DHT22;8431;52.458;9.998;2022-12-07T11:20:39;4.50;99.90
16635;DHT22;8431;52.458;9.998;2022-12-07T11:23:31;4.50;99.90
16635;DHT22;8431;52.458;9.998;2022-12-07T11:26:13;4.40;99.90
16635;DHT22;8431;52.458;9.998;2022-12-07T11:28:59;4.40;99.90
16635;DHT22;8431;52.458;9.998;2022-12-07T11:31:48;4.40;99.90
16635;DHT22;8431;52.458;9.998;2022-12-07T11:34:39;4.50;99.90
16635;DHT22;8431;52.458;9.998;2022-12-07T11:37:32;4.60;99.90
16635;DHT22;8431;52.458;9.998;2022-12-07T11:40:20;4.70;99.90
16635;DHT22;8431;52.458;9.998;2022-12-07T11:42:52;4.60;99.90
16635;DHT22;8431;52.458;9.998;2022-12-07T11:45:23;4.60;99.90
16635;DHT22;8431;52.458;9.998;2022-12-07T11:48:01;4.60;99.90
16635;DHT22;8431;52.458;9.998;2022-12-07T11:50:39;4.50;99.90
16635;DHT22;8431;52.458;9.998;2022-12-07T11:53:15;4.50;99.90
16635;DHT22;8431;52.458;9.998;2022-12-07T11:55:50;4.50;99.90
16635;DHT22;8431;52.458;9.998;2022-12-07T11:58:39;4.40;99.90
16635;DHT22;8431;52.458;9.998;2022-12-07T12:01:30;4.30;99.90
16635;DHT22;8431;52.458;9.998;2022-12-07T12:04:13;4.30;99.90
16635;DHT22;8431;52.458;9.998;2022-12-07T12:06:46;4.50;99.90
16635;DHT22;8431;52.458;9.998;2022-12-07T12:09:17;4.70;99.90
16635;DHT22;8431;52.458;9.998;2022-12-07T12:15:02;4.80;99.90
16635;DHT22;8431;52.458;9.998;2022-12-07T12:17:53;4.80;99.90
16635;DHT22;8431;52.458;9.998;2022-12-07T12:20:27;4.80;99.90
16635;DHT22;8431;52.458;9.998;2022-12-07T12:23:09;4.80;99.90
16635;DHT22;8431;52.458;9.998;2022-12-07T12:25:48;4.60;99.90
16635;DHT22;8431;52.458;9.998;2022-12-07T12:28:28;4.50;99.90
16635;DHT22;8431;52.458;9.998;2022-12-07T12:31:13;4.40;99.90
16635;DHT22;8431;52.458;9.998;2022-12-07T12:34:01;4.30;99.90
16635;DHT22;8431;52.458;9.998;2022-12-07T12:36:44;4.30;99.90
16635;DHT22;8431;52.458;9.998;2022-12-07T12:39:14;4.30;99.90
16635;DHT22;8431;52.458;9.998;2022-12-07T12:41:58;4.40;99.90
16635;DHT22;8431;52.458;9.998;2022-12-07T12:45:18;4.40;99.90
16635;DHT22;8431;52.458;9.998;2022-12-07T12:47:55;4.30;99.90
16635;DHT22;8431;52.458;9.998;2022-12-07T12:50:28;4.40;99.90
16635;DHT22;8431;52.458;9.998;2022-12-07T12:53:00;4.40;99.90
16635;DHT22;8431;52.458;9.998;2022-12-07T12:58:42;4.60;99.90
16635;DHT22;8431;52.458;9.998;2022-12-07T13:01:44;4.60;99.90
16635;DHT22;8431;52.458;9.998;2022-12-07T13:08:01;4.60;99.90
16635;DHT22;8431;52.458;9.998;2022-12-07T13:10:42;4.50;99.90
16635;DHT22;8431;52.458;9.998;2022-12-07T13:13:29;4.50;99.90
16635;DHT22;8431;52.458;9.998;2022-12-07T13:19:12;4.30;99.90
16635;DHT22;8431;52.458;9.998;2022-12-07T13:21:50;4.30;99.90
16635;DHT22;8431;52.458;9.998;2022-12-07T13:24:18;4.30;99.90
16635;DHT22;8431;52.458;9.998;2022-12-07T13:26:48;4.40;99.90
16635;DHT22;8431;52.458;9.998;2022-12-07T13:29:23;4.40;99.90
16635;DHT22;8431;52.458;9.998;2022-12-07T13:31:51;4.40;99.90
16635;DHT22;8431;52.458;9.998;2022-12-07T13:34:31;4.40;99.90
16635;DHT22;8431;52.458;9.998;2022-12-07T13:37:00;4.40;99.90
16635;DHT22;8431;52.458;9.998;2022-12-07T13:39:28;4.30;99.90
16635;DHT22;8431;52.458;9.998;2022-12-07T13:41:56;4.30;99.90
16635;DHT22;8431;52.458;9.998;2022-12-07T13:44:26;4.30;99.90
16635;DHT22;8431;52.458;9.998;2022-12-07T13:47:00;4.30;99.90
16635;DHT22;8431;52.458;9.998;2022-12-07T13:49:46;4.30;99.90
16635;DHT22;8431;52.458;9.998;2022-12-07T13:52:22;4.30;99.90
16635;DHT22;8431;52.458;9.998;2022-12-07T13:54:56;4.30;99.90
16635;DHT22;8431;52.458;9.998;2022-12-07T13:57:25;4.20;99.90
16635;DHT22;8431;52.458;9.998;2022-12-07T13:59:53;4.20;99.90
16635;DHT22;8431;52.458;9.998;2022-12-07T14:02:27;4.20;99.90
16635;DHT22;8431;52.458;9.998;2022-12-07T14:05:09;4.20;99.90
16635;DHT22;8431;52.458;9.998;2022-12-07T14:07:49;4.20;99.90
16635;DHT22;8431;52.458;9.998;2022-12-07T14:10:24;4.20;99.90
16635;DHT22;8431;52.458;9.998;2022-12-07T14:12:52;4.20;99.90
16635;DHT22;8431;52.458;9.998;2022-12-07T14:15:22;4.10;99.90
16635;DHT22;8431;52.458;9.998;2022-12-07T14:17:50;4.00;99.90
16635;DHT22;8431;52.458;9.998;2022-12-07T14:20:34;4.00;99.90
16635;DHT22;8431;52.458;9.998;2022-12-07T14:23:03;4.00;99.90
16635;DHT22;8431;52.458;9.998;2022-12-07T14:25:45;4.00;99.90
16635;DHT22;8431;52.458;9.998;2022-12-07T14:28:26;4.10;99.90
16635;DHT22;8431;52.458;9.998;2022-12-07T14:30:54;4.10;99.90
16635;DHT22;8431;52.458;9.998;2022-12-07T14:33:21;4.10;99.90
16635;DHT22;8431;52.458;9.998;2022-12-07T14:35:50;4.10;99.90
16635;DHT22;8431;52.458;9.998;2022-12-07T14:38:20;4.10;99.90
16635;DHT22;8431;52.458;9.998;2022-12-07T14:40:48;4.10;99.90
16635;DHT22;8431;52.458;9.998;2022-12-07T14:43:16;4.10;99.90
16635;DHT22;8431;52.458;9.998;2022-12-07T14:45:44;4.10;99.90
16635;DHT22;8431;52.458;9.998;2022-12-07T14:48:13;4.10;99.90
16635;DHT22;8431;52.458;9.998;2022-12-07T14:50:42;4.10;99.90
16635;DHT22;8431;52.458;9.998;2022-12-07T14:53:13;4.00;99.90
16635;DHT22;8431;52.458;9.998;2022-12-07T14:55:41;4.00;99.90
16635;DHT22;8431;52.458;9.998;2022-12-07T14:58:12;4.00;99.90
16635;DHT22;8431;52.458;9.998;2022-12-07T15:00:40;4.10;99.90
16635;DHT22;8431;52.458;9.998;2022-12-07T15:03:11;4.10;99.90
16635;DHT22;8431;52.458;9.998;2022-12-07T15:05:39;4.10;99.90
16635;DHT22;8431;52.458;9.998;2022-12-07T15:08:08;4.10;99.90
16635;DHT22;8431;52.458;9.998;2022-12-07T15:10:36;4.10;99.90
16635;DHT22;8431;52.458;9.998;2022-12-07T15:13:04;4.10;99.90
16635;DHT22;8431;52.458;9.998;2022-12-07T15:15:45;3.50;99.90
16635;DHT22;8431;52.458;9.998;2022-12-07T15:18:13;2.40;99.90
16635;DHT22;8431;52.458;9.998;2022-12-07T15:20:40;2.00;99.90
16635;DHT22;8431;52.458;9.998;2022-12-07T15:23:07;1.60;99.90
16635;DHT22;8431;52.458;9.998;2022-12-07T15:25:36;1.30;99.90
16635;DHT22;8431;52.458;9.998;2022-12-07T15:28:05;1.10;99.90
16635;DHT22;8431;52.458;9.998;2022-12-07T15:30:32;1.00;99.90
16635;DHT22;8431;52.458;9.998;2022-12-07T15:32:59;1.00;99.90
16635;DHT22;8431;52.458;9.998;2022-12-07T15:35:27;0.90;99.90
16635;DHT22;8431;52.458;9.998;2022-12-07T15:37:54;0.90;99.90
16635;DHT22;8431;52.458;9.998;2022-12-07T15:40:21;0.90;99.90
16635;DHT22;8431;52.458;9.998;2022-12-07T15:42:49;1.00;99.90
16635;DHT22;8431;52.458;9.998;2022-12-07T15:45:16;1.00;99.90
16635;DHT22;8431;52.458;9.998;2022-12-07T15:47:44;1.00;99.90
16635;DHT22;8431;52.458;9.998;2022-12-07T15:50:14;1.00;99.90
16635;DHT22;8431;52.458;9.998;2022-12-07T15:52:41;1.00;99.90
16635;DHT22;8431;52.458;9.998;2022-12-07T15:55:09;1.00;99.90
16635;DHT22;8431;52.458;9.998;2022-12-07T15:57:38;1.00;99.90
16635;DHT22;8431;52.458;9.998;2022-12-07T16:00:08;1.00;99.90
16635;DHT22;8431;52.458;9.998;2022-12-07T16:02:36;1.00;99.90
16635;DHT22;8431;52.458;9.998;2022-12-07T16:05:04;1.10;99.90
16635;DHT22;8431;52.458;9.998;2022-12-07T16:07:31;1.10;99.90
16635;DHT22;8431;52.458;9.998;2022-12-07T16:09:58;1.20;99.90
16635;DHT22;8431;52.458;9.998;2022-12-07T16:12:25;1.20;99.90
16635;DHT22;8431;52.458;9.998;2022-12-07T16:14:52;1.20;99.90
16635;DHT22;8431;52.458;9.998;2022-12-07T16:17:20;1.20;99.90
16635;DHT22;8431;52.458;9.998;2022-12-07T16:19:47;1.20;99.90
16635;DHT22;8431;52.458;9.998;2022-12-07T16:22:14;1.30;99.90
16635;DHT22;8431;52.458;9.998;2022-12-07T16:24:42;1.40;99.90
16635;DHT22;8431;52.458;9.998;2022-12-07T16:27:09;1.40;99.90
16635;DHT22;8431;52.458;9.998;2022-12-07T16:29:36;1.50;99.90
16635;DHT22;8431;52.458;9.998;2022-12-07T16:32:09;1.50;99.90
16635;DHT22;8431;52.458;9.998;2022-12-07T16:34:39;1.70;99.90
16635;DHT22;8431;52.458;9.998;2022-12-07T16:37:10;1.70;99.90
16635;DHT22;8431;52.458;9.998;2022-12-07T16:39:37;1.80;99.90
16635;DHT22;8431;52.458;9.998;2022-12-07T16:42:09;1.90;99.90
16635;DHT22;8431;52.458;9.998;2022-12-07T16:44:36;2.00;99.90
16635;DHT22;8431;52.458;9.998;2022-12-07T16:47:03;2.00;99.90
16635;DHT22;8431;52.458;9.998;2022-12-07T16:49:30;2.00;99.90
16635;DHT22;8431;52.458;9.998;2022-12-07T16:51:59;2.10;99.90
16635;DHT22;8431;52.458;9.998;2022-12-07T16:54:26;2.10;99.90
16635;DHT22;8431;52.458;9.998;2022-12-07T16:56:56;2.10;99.90
16635;DHT22;8431;52.458;9.998;2022-12-07T16:59:23;2.20;99.90
16635;DHT22;8431;52.458;9.998;2022-12-07T17:01:50;2.20;99.90
16635;DHT22;8431;52.458;9.998;2022-12-07T17:04:17;2.20;99.90